sensor_id;sensor_type;location;lat;lon;timestamp;P1;durP1;ratioP1;P2;durP2;ratioP2
56770;SDS011;42641;59.794;17.616;2022-12-08T00:01:14;2.10;;;1.03;;
56770;SDS011;42641;59.794;17.616;2022-12-08T00:03:42;1.40;;;1.07;;
56770;SDS011;42641;59.794;17.616;2022-12-08T00:09:03;1.30;;;1.20;;
56770;SDS011;42641;59.794;17.616;2022-12-08T00:12:00;2.63;;;1.43;;
56770;SDS011;42641;59.794;17.616;2022-12-08T00:14:29;3.77;;;1.37;;
56770;SDS011;42641;59.794;17.616;2022-12-08T00:16:58;1.53;;;1.17;;
56770;SDS011;42641;59.794;17.616;2022-12-08T00:19:25;1.77;;;1.30;;
56770;SDS011;42641;59.794;17.616;2022-12-08T00:21:52;1.33;;;1.23;;
56770;SDS011;42641;59.794;17.616;2022-12-08T00:24:19;5.67;;;1.43;;
56770;SDS011;42641;59.794;17.616;2022-12-08T00:26:46;1.67;;;0.87;;
56770;SDS011;42641;59.794;17.616;2022-12-08T00:29:13;3.70;;;1.27;;
56770;SDS011;42641;59.794;17.616;2022-12-08T00:31:40;2.87;;;1.27;;
56770;SDS011;42641;59.794;17.616;2022-12-08T00:34:06;1.77;;;1.40;;
56770;SDS011;42641;59.794;17.616;2022-12-08T00:36:33;5.63;;;1.40;;
56770;SDS011;42641;59.794;17.616;2022-12-08T00:38:59;1.10;;;1.00;;
56770;SDS011;42641;59.794;17.616;2022-12-08T00:41:27;1.20;;;1.10;;
56770;SDS011;42641;59.794;17.616;2022-12-08T00:44:13;1.20;;;1.10;;
56770;SDS011;42641;59.794;17.616;2022-12-08T00:46:41;3.03;;;1.50;;
56770;SDS011;42641;59.794;17.616;2022-12-08T00:49:08;1.30;;;1.20;;
56770;SDS011;42641;59.794;17.616;2022-12-08T00:51:35;1.23;;;1.00;;
56770;SDS011;42641;59.794;17.616;2022-12-08T00:54:02;2.43;;;1.43;;
56770;SDS011;42641;59.794;17.616;2022-12-08T00:56:29;5.33;;;1.37;;
56770;SDS011;42641;59.794;17.616;2022-12-08T00:58:56;3.43;;;1.30;;
56770;SDS011;42641;59.794;17.616;2022-12-08T01:01:22;1.77;;;1.20;;
56770;SDS011;42641;59.794;17.616;2022-12-08T01:03:48;2.47;;;1.27;;
56770;SDS011;42641;59.794;17.616;2022-12-08T01:06:15;1.30;;;1.20;;
56770;SDS011;42641;59.794;17.616;2022-12-08T01:08:41;2.67;;;1.40;;
56770;SDS011;42641;59.794;17.616;2022-12-08T01:11:10;1.47;;;1.30;;
56770;SDS011;42641;59.794;17.616;2022-12-08T01:13:38;1.47;;;1.10;;
56770;SDS011;42641;59.794;17.616;2022-12-08T01:16:04;1.40;;;1.00;;
56770;SDS011;42641;59.794;17.616;2022-12-08T01:18:31;1.30;;;1.20;;
56770;SDS011;42641;59.794;17.616;2022-12-08T01:21:02;3.57;;;1.30;;
56770;SDS011;42641;59.794;17.616;2022-12-08T01:23:33;1.10;;;1.10;;
56770;SDS011;42641;59.794;17.616;2022-12-08T01:26:03;1.97;;;1.20;;
56770;SDS011;42641;59.794;17.616;2022-12-08T01:28:31;1.67;;;1.23;;
56770;SDS011;42641;59.794;17.616;2022-12-08T01:30:58;1.93;;;1.53;;
56770;SDS011;42641;59.794;17.616;2022-12-08T01:33:25;2.23;;;1.30;;
56770;SDS011;42641;59.794;17.616;2022-12-08T01:35:52;1.47;;;1.33;;
56770;SDS011;42641;59.794;17.616;2022-12-08T01:38:20;2.07;;;1.40;;
56770;SDS011;42641;59.794;17.616;2022-12-08T01:40:47;1.93;;;1.10;;
56770;SDS011;42641;59.794;17.616;2022-12-08T01:43:17;1.50;;;1.20;;
56770;SDS011;42641;59.794;17.616;2022-12-08T01:45:45;1.47;;;1.20;;
56770;SDS011;42641;59.794;17.616;2022-12-08T01:48:22;1.27;;;1.00;;
56770;SDS011;42641;59.794;17.616;2022-12-08T01:50:52;1.40;;;1.30;;
56770;SDS011;42641;59.794;17.616;2022-12-08T01:53:22;1.27;;;1.17;;
56770;SDS011;42641;59.794;17.616;2022-12-08T01:55:58;3.57;;;1.20;;
56770;SDS011;42641;59.794;17.616;2022-12-08T01:58:33;0.90;;;0.90;;
56770;SDS011;42641;59.794;17.616;2022-12-08T02:01:02;2.07;;;1.27;;
56770;SDS011;42641;59.794;17.616;2022-12-08T02:03:30;2.43;;;1.20;;
56770;SDS011;42641;59.794;17.616;2022-12-08T02:06:02;1.00;;;0.90;;
56770;SDS011;42641;59.794;17.616;2022-12-08T02:08:29;1.70;;;1.27;;
56770;SDS011;42641;59.794;17.616;2022-12-08T02:10:57;1.90;;;1.30;;
56770;SDS011;42641;59.794;17.616;2022-12-08T02:13:23;1.40;;;1.00;;
56770;SDS011;42641;59.794;17.616;2022-12-08T02:21:34;1.20;;;1.00;;
56770;SDS011;42641;59.794;17.616;2022-12-08T02:27:27;1.07;;;1.03;;
56770;SDS011;42641;59.794;17.616;2022-12-08T02:30:27;1.57;;;1.20;;
56770;SDS011;42641;59.794;17.616;2022-12-08T02:35:53;2.33;;;1.20;;
56770;SDS011;42641;59.794;17.616;2022-12-08T02:47:07;3.07;;;1.20;;
56770;SDS011;42641;59.794;17.616;2022-12-08T02:49:37;2.90;;;1.10;;
56770;SDS011;42641;59.794;17.616;2022-12-08T02:52:04;1.63;;;1.00;;
56770;SDS011;42641;59.794;17.616;2022-12-08T02:54:38;1.10;;;1.00;;
56770;SDS011;42641;59.794;17.616;2022-12-08T03:02:39;1.10;;;0.87;;
56770;SDS011;42641;59.794;17.616;2022-12-08T03:07:51;2.00;;;0.97;;
56770;SDS011;42641;59.794;17.616;2022-12-08T03:13:02;1.33;;;1.20;;
56770;SDS011;42641;59.794;17.616;2022-12-08T03:15:50;0.83;;;0.83;;
56770;SDS011;42641;59.794;17.616;2022-12-08T03:18:18;1.87;;;1.10;;
56770;SDS011;42641;59.794;17.616;2022-12-08T03:20:49;1.67;;;1.20;;
56770;SDS011;42641;59.794;17.616;2022-12-08T03:23:16;1.40;;;0.90;;
56770;SDS011;42641;59.794;17.616;2022-12-08T03:25:49;1.60;;;1.00;;
56770;SDS011;42641;59.794;17.616;2022-12-08T03:28:22;1.00;;;1.00;;
56770;SDS011;42641;59.794;17.616;2022-12-08T03:30:49;1.43;;;0.97;;
56770;SDS011;42641;59.794;17.616;2022-12-08T03:33:24;1.20;;;1.07;;
56770;SDS011;42641;59.794;17.616;2022-12-08T03:35:54;0.77;;;0.70;;
56770;SDS011;42641;59.794;17.616;2022-12-08T03:38:22;1.40;;;0.90;;
56770;SDS011;42641;59.794;17.616;2022-12-08T03:40:48;1.23;;;1.00;;
56770;SDS011;42641;59.794;17.616;2022-12-08T03:43:35;2.30;;;1.03;;
56770;SDS011;42641;59.794;17.616;2022-12-08T03:46:01;0.90;;;0.90;;
56770;SDS011;42641;59.794;17.616;2022-12-08T03:48:28;1.03;;;0.93;;
56770;SDS011;42641;59.794;17.616;2022-12-08T03:50:54;0.83;;;0.83;;
56770;SDS011;42641;59.794;17.616;2022-12-08T03:53:20;0.97;;;0.80;;
56770;SDS011;42641;59.794;17.616;2022-12-08T03:55:47;1.03;;;0.90;;
56770;SDS011;42641;59.794;17.616;2022-12-08T03:58:13;2.33;;;1.00;;
56770;SDS011;42641;59.794;17.616;2022-12-08T04:00:39;1.87;;;1.00;;
56770;SDS011;42641;59.794;17.616;2022-12-08T04:03:06;1.17;;;1.07;;
56770;SDS011;42641;59.794;17.616;2022-12-08T04:05:32;1.77;;;1.13;;
56770;SDS011;42641;59.794;17.616;2022-12-08T04:07:58;1.03;;;0.90;;
56770;SDS011;42641;59.794;17.616;2022-12-08T04:10:25;2.30;;;1.30;;
56770;SDS011;42641;59.794;17.616;2022-12-08T04:12:52;0.60;;;0.60;;
56770;SDS011;42641;59.794;17.616;2022-12-08T04:15:18;1.37;;;0.87;;
56770;SDS011;42641;59.794;17.616;2022-12-08T04:17:44;1.53;;;0.93;;
56770;SDS011;42641;59.794;17.616;2022-12-08T04:20:11;2.10;;;0.90;;
56770;SDS011;42641;59.794;17.616;2022-12-08T04:22:37;1.40;;;0.93;;
56770;SDS011;42641;59.794;17.616;2022-12-08T04:25:04;1.37;;;1.03;;
56770;SDS011;42641;59.794;17.616;2022-12-08T04:27:30;0.80;;;0.80;;
56770;SDS011;42641;59.794;17.616;2022-12-08T04:29:57;1.73;;;0.90;;
56770;SDS011;42641;59.794;17.616;2022-12-08T04:32:23;1.17;;;0.97;;
56770;SDS011;42641;59.794;17.616;2022-12-08T04:34:49;1.73;;;1.03;;
56770;SDS011;42641;59.794;17.616;2022-12-08T04:37:16;1.00;;;0.90;;
56770;SDS011;42641;59.794;17.616;2022-12-08T04:39:42;2.50;;;0.93;;
56770;SDS011;42641;59.794;17.616;2022-12-08T04:42:08;1.03;;;0.97;;
56770;SDS011;42641;59.794;17.616;2022-12-08T04:44:34;0.63;;;0.63;;
56770;SDS011;42641;59.794;17.616;2022-12-08T04:47:01;0.90;;;0.90;;
56770;SDS011;42641;59.794;17.616;2022-12-08T04:49:27;0.70;;;0.70;;
56770;SDS011;42641;59.794;17.616;2022-12-08T04:51:53;1.80;;;0.80;;
56770;SDS011;42641;59.794;17.616;2022-12-08T04:54:20;1.70;;;1.20;;
56770;SDS011;42641;59.794;17.616;2022-12-08T04:56:46;1.50;;;1.10;;
56770;SDS011;42641;59.794;17.616;2022-12-08T04:59:13;1.40;;;1.00;;
56770;SDS011;42641;59.794;17.616;2022-12-08T05:01:39;1.13;;;1.00;;
56770;SDS011;42641;59.794;17.616;2022-12-08T05:04:05;1.87;;;1.00;;
56770;SDS011;42641;59.794;17.616;2022-12-08T05:06:32;1.13;;;0.80;;
56770;SDS011;42641;59.794;17.616;2022-12-08T05:08:58;1.97;;;1.07;;
56770;SDS011;42641;59.794;17.616;2022-12-08T05:11:24;1.57;;;1.07;;
56770;SDS011;42641;59.794;17.616;2022-12-08T05:13:51;2.20;;;0.90;;
56770;SDS011;42641;59.794;17.616;2022-12-08T05:16:17;0.80;;;0.80;;
56770;SDS011;42641;59.794;17.616;2022-12-08T05:18:43;0.80;;;0.80;;
56770;SDS011;42641;59.794;17.616;2022-12-08T05:21:10;0.90;;;0.90;;
56770;SDS011;42641;59.794;17.616;2022-12-08T05:23:36;1.37;;;0.90;;
56770;SDS011;42641;59.794;17.616;2022-12-08T05:26:03;1.07;;;0.70;;
56770;SDS011;42641;59.794;17.616;2022-12-08T05:28:29;1.13;;;1.03;;
56770;SDS011;42641;59.794;17.616;2022-12-08T05:30:55;0.80;;;0.80;;
56770;SDS011;42641;59.794;17.616;2022-12-08T05:33:22;1.03;;;0.93;;
56770;SDS011;42641;59.794;17.616;2022-12-08T05:35:48;1.43;;;1.33;;
56770;SDS011;42641;59.794;17.616;2022-12-08T05:38:14;1.70;;;1.30;;
56770;SDS011;42641;59.794;17.616;2022-12-08T05:40:41;2.20;;;0.80;;
56770;SDS011;42641;59.794;17.616;2022-12-08T05:43:08;1.60;;;1.20;;
56770;SDS011;42641;59.794;17.616;2022-12-08T05:45:35;2.30;;;1.47;;
56770;SDS011;42641;59.794;17.616;2022-12-08T05:48:01;2.00;;;1.40;;
56770;SDS011;42641;59.794;17.616;2022-12-08T05:50:28;2.23;;;1.10;;
56770;SDS011;42641;59.794;17.616;2022-12-08T05:52:56;3.07;;;0.93;;
56770;SDS011;42641;59.794;17.616;2022-12-08T05:55:22;0.80;;;0.80;;
56770;SDS011;42641;59.794;17.616;2022-12-08T05:57:48;0.97;;;0.93;;
56770;SDS011;42641;59.794;17.616;2022-12-08T06:00:15;2.10;;;1.03;;
56770;SDS011;42641;59.794;17.616;2022-12-08T06:02:41;0.80;;;0.80;;
56770;SDS011;42641;59.794;17.616;2022-12-08T06:05:08;1.07;;;0.97;;
56770;SDS011;42641;59.794;17.616;2022-12-08T06:07:34;2.17;;;1.20;;
56770;SDS011;42641;59.794;17.616;2022-12-08T06:10:01;1.10;;;0.80;;
56770;SDS011;42641;59.794;17.616;2022-12-08T06:12:27;0.90;;;0.90;;
56770;SDS011;42641;59.794;17.616;2022-12-08T06:14:53;1.00;;;0.90;;
56770;SDS011;42641;59.794;17.616;2022-12-08T06:17:20;1.50;;;1.00;;
56770;SDS011;42641;59.794;17.616;2022-12-08T06:19:46;1.87;;;1.30;;
56770;SDS011;42641;59.794;17.616;2022-12-08T06:22:12;2.87;;;1.00;;
56770;SDS011;42641;59.794;17.616;2022-12-08T06:24:39;3.23;;;1.30;;
56770;SDS011;42641;59.794;17.616;2022-12-08T06:27:05;5.83;;;1.70;;
56770;SDS011;42641;59.794;17.616;2022-12-08T06:29:32;2.87;;;2.23;;
56770;SDS011;42641;59.794;17.616;2022-12-08T06:31:58;1.70;;;1.60;;
56770;SDS011;42641;59.794;17.616;2022-12-08T06:34:24;2.60;;;1.63;;
56770;SDS011;42641;59.794;17.616;2022-12-08T06:36:51;1.67;;;1.23;;
56770;SDS011;42641;59.794;17.616;2022-12-08T06:39:17;3.43;;;1.83;;
56770;SDS011;42641;59.794;17.616;2022-12-08T06:41:44;3.37;;;2.00;;
56770;SDS011;42641;59.794;17.616;2022-12-08T06:44:28;4.30;;;2.13;;
56770;SDS011;42641;59.794;17.616;2022-12-08T06:46:55;2.60;;;2.10;;
56770;SDS011;42641;59.794;17.616;2022-12-08T06:49:21;3.47;;;2.67;;
56770;SDS011;42641;59.794;17.616;2022-12-08T06:51:47;3.23;;;2.30;;
56770;SDS011;42641;59.794;17.616;2022-12-08T06:54:14;4.30;;;2.10;;
56770;SDS011;42641;59.794;17.616;2022-12-08T06:56:40;4.33;;;1.90;;
56770;SDS011;42641;59.794;17.616;2022-12-08T06:59:07;2.93;;;1.97;;
56770;SDS011;42641;59.794;17.616;2022-12-08T07:01:33;2.37;;;1.77;;
56770;SDS011;42641;59.794;17.616;2022-12-08T07:03:59;2.93;;;2.00;;
56770;SDS011;42641;59.794;17.616;2022-12-08T07:06:25;2.10;;;1.83;;
56770;SDS011;42641;59.794;17.616;2022-12-08T07:08:52;3.73;;;2.30;;
56770;SDS011;42641;59.794;17.616;2022-12-08T07:11:18;5.73;;;4.57;;
56770;SDS011;42641;59.794;17.616;2022-12-08T07:13:45;3.13;;;2.83;;
56770;SDS011;42641;59.794;17.616;2022-12-08T07:16:11;4.93;;;2.40;;
56770;SDS011;42641;59.794;17.616;2022-12-08T07:18:38;2.73;;;2.10;;
56770;SDS011;42641;59.794;17.616;2022-12-08T07:21:05;6.80;;;2.03;;
56770;SDS011;42641;59.794;17.616;2022-12-08T07:23:33;2.60;;;2.00;;
56770;SDS011;42641;59.794;17.616;2022-12-08T07:26:04;2.50;;;1.90;;
56770;SDS011;42641;59.794;17.616;2022-12-08T07:28:33;2.63;;;1.93;;
56770;SDS011;42641;59.794;17.616;2022-12-08T07:31:01;3.93;;;2.73;;
56770;SDS011;42641;59.794;17.616;2022-12-08T07:33:28;7.73;;;3.10;;
56770;SDS011;42641;59.794;17.616;2022-12-08T07:35:55;4.47;;;3.07;;
56770;SDS011;42641;59.794;17.616;2022-12-08T07:38:23;7.27;;;4.00;;
56770;SDS011;42641;59.794;17.616;2022-12-08T07:40:51;10.47;;;3.83;;
56770;SDS011;42641;59.794;17.616;2022-12-08T07:43:17;8.13;;;2.63;;
56770;SDS011;42641;59.794;17.616;2022-12-08T07:45:44;7.40;;;3.93;;
56770;SDS011;42641;59.794;17.616;2022-12-08T07:48:11;6.33;;;3.37;;
56770;SDS011;42641;59.794;17.616;2022-12-08T07:50:37;4.93;;;2.90;;
56770;SDS011;42641;59.794;17.616;2022-12-08T07:53:04;4.07;;;3.07;;
56770;SDS011;42641;59.794;17.616;2022-12-08T07:55:32;2.43;;;1.90;;
56770;SDS011;42641;59.794;17.616;2022-12-08T07:57:58;5.13;;;2.57;;
56770;SDS011;42641;59.794;17.616;2022-12-08T08:00:24;4.47;;;2.13;;
56770;SDS011;42641;59.794;17.616;2022-12-08T08:02:51;4.43;;;2.23;;
56770;SDS011;42641;59.794;17.616;2022-12-08T08:05:17;5.33;;;2.37;;
56770;SDS011;42641;59.794;17.616;2022-12-08T08:07:45;8.60;;;4.10;;
56770;SDS011;42641;59.794;17.616;2022-12-08T08:10:12;7.70;;;4.20;;
56770;SDS011;42641;59.794;17.616;2022-12-08T08:12:39;9.27;;;4.97;;
56770;SDS011;42641;59.794;17.616;2022-12-08T08:15:06;7.73;;;4.30;;
56770;SDS011;42641;59.794;17.616;2022-12-08T08:17:34;5.03;;;3.40;;
56770;SDS011;42641;59.794;17.616;2022-12-08T08:20:02;14.73;;;3.97;;
56770;SDS011;42641;59.794;17.616;2022-12-08T08:22:32;6.30;;;2.57;;
56770;SDS011;42641;59.794;17.616;2022-12-08T08:24:58;5.67;;;3.50;;
56770;SDS011;42641;59.794;17.616;2022-12-08T08:27:24;6.63;;;3.53;;
56770;SDS011;42641;59.794;17.616;2022-12-08T08:29:51;28.63;;;13.43;;
56770;SDS011;42641;59.794;17.616;2022-12-08T08:32:18;16.43;;;8.37;;
56770;SDS011;42641;59.794;17.616;2022-12-08T08:34:47;3.73;;;2.23;;
56770;SDS011;42641;59.794;17.616;2022-12-08T08:37:13;2.80;;;2.17;;
56770;SDS011;42641;59.794;17.616;2022-12-08T08:39:40;12.80;;;1.90;;
56770;SDS011;42641;59.794;17.616;2022-12-08T08:42:07;6.90;;;1.67;;
56770;SDS011;42641;59.794;17.616;2022-12-08T08:44:34;4.10;;;2.60;;
56770;SDS011;42641;59.794;17.616;2022-12-08T08:47:02;3.43;;;2.20;;
56770;SDS011;42641;59.794;17.616;2022-12-08T08:49:28;6.00;;;2.53;;
56770;SDS011;42641;59.794;17.616;2022-12-08T08:51:54;5.33;;;2.10;;
56770;SDS011;42641;59.794;17.616;2022-12-08T08:54:20;5.17;;;1.67;;
56770;SDS011;42641;59.794;17.616;2022-12-08T08:56:47;5.50;;;2.03;;
56770;SDS011;42641;59.794;17.616;2022-12-08T08:59:13;6.33;;;1.80;;
56770;SDS011;42641;59.794;17.616;2022-12-08T09:01:40;2.60;;;1.60;;
56770;SDS011;42641;59.794;17.616;2022-12-08T09:04:08;1.30;;;1.20;;
56770;SDS011;42641;59.794;17.616;2022-12-08T09:06:34;5.20;;;1.60;;
56770;SDS011;42641;59.794;17.616;2022-12-08T09:09:01;5.40;;;1.90;;
56770;SDS011;42641;59.794;17.616;2022-12-08T09:11:28;5.53;;;2.03;;
56770;SDS011;42641;59.794;17.616;2022-12-08T09:13:54;5.67;;;2.00;;
56770;SDS011;42641;59.794;17.616;2022-12-08T09:16:20;12.40;;;2.50;;
56770;SDS011;42641;59.794;17.616;2022-12-08T09:18:47;3.47;;;1.87;;
56770;SDS011;42641;59.794;17.616;2022-12-08T09:21:14;5.57;;;1.90;;
56770;SDS011;42641;59.794;17.616;2022-12-08T09:23:48;9.20;;;2.13;;
56770;SDS011;42641;59.794;17.616;2022-12-08T09:26:15;8.43;;;2.10;;
56770;SDS011;42641;59.794;17.616;2022-12-08T09:28:41;5.73;;;1.73;;
56770;SDS011;42641;59.794;17.616;2022-12-08T09:31:12;10.13;;;1.90;;
56770;SDS011;42641;59.794;17.616;2022-12-08T09:33:39;5.20;;;2.10;;
56770;SDS011;42641;59.794;17.616;2022-12-08T09:36:05;4.07;;;2.33;;
56770;SDS011;42641;59.794;17.616;2022-12-08T09:38:33;5.73;;;2.40;;
56770;SDS011;42641;59.794;17.616;2022-12-08T09:41:01;6.07;;;2.17;;
56770;SDS011;42641;59.794;17.616;2022-12-08T09:46:19;6.23;;;1.60;;
56770;SDS011;42641;59.794;17.616;2022-12-08T09:48:48;4.50;;;2.67;;
56770;SDS011;42641;59.794;17.616;2022-12-08T09:51:22;3.43;;;2.50;;
56770;SDS011;42641;59.794;17.616;2022-12-08T09:54:01;3.70;;;2.50;;
56770;SDS011;42641;59.794;17.616;2022-12-08T09:56:34;3.33;;;2.10;;
56770;SDS011;42641;59.794;17.616;2022-12-08T10:01:35;4.60;;;1.83;;
56770;SDS011;42641;59.794;17.616;2022-12-08T10:12:08;2.50;;;2.10;;
56770;SDS011;42641;59.794;17.616;2022-12-08T10:14:50;3.27;;;2.00;;
56770;SDS011;42641;59.794;17.616;2022-12-08T10:17:24;2.93;;;1.90;;
56770;SDS011;42641;59.794;17.616;2022-12-08T10:20:09;2.23;;;1.70;;
56770;SDS011;42641;59.794;17.616;2022-12-08T10:22:41;2.50;;;1.50;;
56770;SDS011;42641;59.794;17.616;2022-12-08T10:25:22;4.47;;;1.40;;
56770;SDS011;42641;59.794;17.616;2022-12-08T10:27:56;2.73;;;1.70;;
56770;SDS011;42641;59.794;17.616;2022-12-08T10:30:23;8.23;;;1.97;;
56770;SDS011;42641;59.794;17.616;2022-12-08T10:32:50;1.77;;;1.67;;
56770;SDS011;42641;59.794;17.616;2022-12-08T10:35:21;4.80;;;1.50;;
56770;SDS011;42641;59.794;17.616;2022-12-08T10:37:56;2.93;;;1.53;;
56770;SDS011;42641;59.794;17.616;2022-12-08T10:40:29;2.60;;;1.70;;
56770;SDS011;42641;59.794;17.616;2022-12-08T10:43:00;2.50;;;1.80;;
56770;SDS011;42641;59.794;17.616;2022-12-08T10:45:31;2.43;;;1.67;;
56770;SDS011;42641;59.794;17.616;2022-12-08T10:48:03;4.37;;;1.73;;
56770;SDS011;42641;59.794;17.616;2022-12-08T11:01:32;3.17;;;1.63;;
56770;SDS011;42641;59.794;17.616;2022-12-08T11:04:03;2.80;;;1.57;;
56770;SDS011;42641;59.794;17.616;2022-12-08T11:06:37;2.53;;;1.70;;
56770;SDS011;42641;59.794;17.616;2022-12-08T11:17:08;4.27;;;2.07;;
56770;SDS011;42641;59.794;17.616;2022-12-08T11:19:55;3.93;;;2.10;;
56770;SDS011;42641;59.794;17.616;2022-12-08T11:24:58;2.57;;;1.90;;
56770;SDS011;42641;59.794;17.616;2022-12-08T11:27:45;4.33;;;2.23;;
56770;SDS011;42641;59.794;17.616;2022-12-08T11:30:36;3.37;;;1.87;;
56770;SDS011;42641;59.794;17.616;2022-12-08T11:33:17;2.97;;;2.23;;
56770;SDS011;42641;59.794;17.616;2022-12-08T11:35:48;4.70;;;1.90;;
56770;SDS011;42641;59.794;17.616;2022-12-08T11:38:27;4.17;;;2.43;;
56770;SDS011;42641;59.794;17.616;2022-12-08T11:40:56;3.20;;;2.40;;
56770;SDS011;42641;59.794;17.616;2022-12-08T11:43:35;4.30;;;2.70;;
56770;SDS011;42641;59.794;17.616;2022-12-08T11:46:24;2.40;;;2.20;;
56770;SDS011;42641;59.794;17.616;2022-12-08T11:49:01;2.80;;;2.13;;
56770;SDS011;42641;59.794;17.616;2022-12-08T11:51:41;8.47;;;3.07;;
56770;SDS011;42641;59.794;17.616;2022-12-08T11:54:34;3.07;;;1.87;;
56770;SDS011;42641;59.794;17.616;2022-12-08T11:57:12;6.73;;;2.60;;
56770;SDS011;42641;59.794;17.616;2022-12-08T11:59:47;3.63;;;3.13;;
56770;SDS011;42641;59.794;17.616;2022-12-08T12:02:16;3.07;;;2.00;;
56770;SDS011;42641;59.794;17.616;2022-12-08T12:04:53;4.00;;;2.37;;
56770;SDS011;42641;59.794;17.616;2022-12-08T12:19:07;4.30;;;1.70;;
56770;SDS011;42641;59.794;17.616;2022-12-08T12:21:38;3.23;;;2.00;;
56770;SDS011;42641;59.794;17.616;2022-12-08T12:24:13;3.53;;;1.93;;
56770;SDS011;42641;59.794;17.616;2022-12-08T12:29:23;3.77;;;1.90;;
56770;SDS011;42641;59.794;17.616;2022-12-08T12:31:54;7.43;;;2.03;;
56770;SDS011;42641;59.794;17.616;2022-12-08T12:39:43;4.77;;;1.83;;
56770;SDS011;42641;59.794;17.616;2022-12-08T12:50:41;3.97;;;2.10;;
56770;SDS011;42641;59.794;17.616;2022-12-08T12:53:01;3.13;;;2.00;;
56770;SDS011;42641;59.794;17.616;2022-12-08T12:55:54;4.73;;;3.43;;
56770;SDS011;42641;59.794;17.616;2022-12-08T13:03:36;3.50;;;2.00;;
56770;SDS011;42641;59.794;17.616;2022-12-08T13:06:06;3.40;;;2.23;;
56770;SDS011;42641;59.794;17.616;2022-12-08T13:08:37;4.13;;;1.90;;
56770;SDS011;42641;59.794;17.616;2022-12-08T13:11:07;2.90;;;1.80;;
56770;SDS011;42641;59.794;17.616;2022-12-08T13:13:37;3.10;;;1.97;;
56770;SDS011;42641;59.794;17.616;2022-12-08T13:16:25;3.23;;;2.30;;
56770;SDS011;42641;59.794;17.616;2022-12-08T13:18:59;3.93;;;2.10;;
56770;SDS011;42641;59.794;17.616;2022-12-08T13:21:32;2.73;;;1.90;;
56770;SDS011;42641;59.794;17.616;2022-12-08T13:29:29;4.47;;;2.00;;
56770;SDS011;42641;59.794;17.616;2022-12-08T13:34:51;6.80;;;2.40;;
56770;SDS011;42641;59.794;17.616;2022-12-08T13:37:30;15.13;;;2.30;;
56770;SDS011;42641;59.794;17.616;2022-12-08T13:40:02;3.63;;;1.90;;
56770;SDS011;42641;59.794;17.616;2022-12-08T13:45:21;2.73;;;2.10;;
56770;SDS011;42641;59.794;17.616;2022-12-08T13:50:41;4.33;;;1.90;;
56770;SDS011;42641;59.794;17.616;2022-12-08T13:53:22;2.30;;;1.60;;
56770;SDS011;42641;59.794;17.616;2022-12-08T13:55:58;2.57;;;1.93;;
56770;SDS011;42641;59.794;17.616;2022-12-08T13:58:27;6.07;;;1.97;;
56770;SDS011;42641;59.794;17.616;2022-12-08T14:01:12;5.57;;;2.20;;
56770;SDS011;42641;59.794;17.616;2022-12-08T14:03:47;4.13;;;1.67;;
56770;SDS011;42641;59.794;17.616;2022-12-08T14:06:24;2.90;;;2.10;;
56770;SDS011;42641;59.794;17.616;2022-12-08T14:08:57;3.47;;;2.10;;
56770;SDS011;42641;59.794;17.616;2022-12-08T14:11:45;5.03;;;2.20;;
56770;SDS011;42641;59.794;17.616;2022-12-08T14:14:28;3.37;;;1.80;;
56770;SDS011;42641;59.794;17.616;2022-12-08T14:17:04;5.87;;;2.43;;
56770;SDS011;42641;59.794;17.616;2022-12-08T14:19:36;3.60;;;2.53;;
56770;SDS011;42641;59.794;17.616;2022-12-08T14:22:10;5.60;;;2.57;;
56770;SDS011;42641;59.794;17.616;2022-12-08T14:24:38;3.30;;;2.60;;
56770;SDS011;42641;59.794;17.616;2022-12-08T14:27:12;2.93;;;2.43;;
56770;SDS011;42641;59.794;17.616;2022-12-08T14:32:28;5.93;;;2.57;;
56770;SDS011;42641;59.794;17.616;2022-12-08T14:35:00;6.30;;;2.43;;
56770;SDS011;42641;59.794;17.616;2022-12-08T14:37:41;5.47;;;2.70;;
56770;SDS011;42641;59.794;17.616;2022-12-08T14:40:38;8.50;;;2.30;;
56770;SDS011;42641;59.794;17.616;2022-12-08T14:45:33;2.47;;;2.10;;
56770;SDS011;42641;59.794;17.616;2022-12-08T15:01:31;4.30;;;2.50;;
56770;SDS011;42641;59.794;17.616;2022-12-08T15:03:59;4.07;;;2.67;;
56770;SDS011;42641;59.794;17.616;2022-12-08T15:06:51;3.37;;;2.73;;
56770;SDS011;42641;59.794;17.616;2022-12-08T15:09:37;5.90;;;2.67;;
56770;SDS011;42641;59.794;17.616;2022-12-08T15:12:14;5.13;;;2.73;;
56770;SDS011;42641;59.794;17.616;2022-12-08T15:17:33;4.40;;;2.30;;
56770;SDS011;42641;59.794;17.616;2022-12-08T15:20:24;4.67;;;2.57;;
56770;SDS011;42641;59.794;17.616;2022-12-08T15:22:51;5.00;;;2.33;;
56770;SDS011;42641;59.794;17.616;2022-12-08T15:25:19;4.77;;;2.50;;
56770;SDS011;42641;59.794;17.616;2022-12-08T15:27:46;4.13;;;2.33;;
56770;SDS011;42641;59.794;17.616;2022-12-08T15:30:13;5.67;;;2.57;;
56770;SDS011;42641;59.794;17.616;2022-12-08T15:32:41;5.27;;;2.47;;
56770;SDS011;42641;59.794;17.616;2022-12-08T15:35:14;4.23;;;1.87;;
56770;SDS011;42641;59.794;17.616;2022-12-08T15:37:41;3.37;;;2.30;;
56770;SDS011;42641;59.794;17.616;2022-12-08T15:40:17;8.00;;;2.33;;
56770;SDS011;42641;59.794;17.616;2022-12-08T15:42:47;3.13;;;2.37;;
56770;SDS011;42641;59.794;17.616;2022-12-08T15:45:14;4.07;;;2.50;;
56770;SDS011;42641;59.794;17.616;2022-12-08T15:47:41;3.97;;;2.40;;
56770;SDS011;42641;59.794;17.616;2022-12-08T15:50:16;5.83;;;2.33;;
56770;SDS011;42641;59.794;17.616;2022-12-08T15:52:47;3.17;;;2.60;;
56770;SDS011;42641;59.794;17.616;2022-12-08T15:55:16;4.90;;;2.60;;
56770;SDS011;42641;59.794;17.616;2022-12-08T15:57:44;8.03;;;2.50;;
56770;SDS011;42641;59.794;17.616;2022-12-08T16:02:49;3.10;;;2.23;;
56770;SDS011;42641;59.794;17.616;2022-12-08T16:05:16;3.93;;;2.37;;
56770;SDS011;42641;59.794;17.616;2022-12-08T16:07:42;8.53;;;2.43;;
56770;SDS011;42641;59.794;17.616;2022-12-08T16:10:31;7.50;;;3.00;;
56770;SDS011;42641;59.794;17.616;2022-12-08T16:12:56;2.77;;;2.27;;
56770;SDS011;42641;59.794;17.616;2022-12-08T16:15:41;4.57;;;2.40;;
56770;SDS011;42641;59.794;17.616;2022-12-08T16:18:12;4.57;;;2.40;;
56770;SDS011;42641;59.794;17.616;2022-12-08T16:20:42;5.80;;;2.20;;
56770;SDS011;42641;59.794;17.616;2022-12-08T16:23:08;5.70;;;3.20;;
56770;SDS011;42641;59.794;17.616;2022-12-08T16:25:35;4.47;;;2.47;;
56770;SDS011;42641;59.794;17.616;2022-12-08T16:28:01;3.93;;;2.50;;
56770;SDS011;42641;59.794;17.616;2022-12-08T16:30:28;4.60;;;2.50;;
56770;SDS011;42641;59.794;17.616;2022-12-08T16:32:54;10.80;;;2.77;;
56770;SDS011;42641;59.794;17.616;2022-12-08T16:35:20;3.43;;;2.40;;
56770;SDS011;42641;59.794;17.616;2022-12-08T16:37:47;6.93;;;3.00;;
56770;SDS011;42641;59.794;17.616;2022-12-08T16:40:16;5.83;;;4.53;;
56770;SDS011;42641;59.794;17.616;2022-12-08T16:42:42;4.60;;;3.17;;
56770;SDS011;42641;59.794;17.616;2022-12-08T16:45:13;5.37;;;2.90;;
56770;SDS011;42641;59.794;17.616;2022-12-08T16:47:43;3.73;;;2.17;;
56770;SDS011;42641;59.794;17.616;2022-12-08T16:50:12;6.03;;;2.80;;
56770;SDS011;42641;59.794;17.616;2022-12-08T16:52:40;3.93;;;2.57;;
56770;SDS011;42641;59.794;17.616;2022-12-08T16:55:09;4.33;;;2.87;;
56770;SDS011;42641;59.794;17.616;2022-12-08T16:57:37;4.63;;;2.50;;
56770;SDS011;42641;59.794;17.616;2022-12-08T17:00:04;4.60;;;3.00;;
56770;SDS011;42641;59.794;17.616;2022-12-08T17:02:33;3.83;;;2.73;;
56770;SDS011;42641;59.794;17.616;2022-12-08T17:05:00;3.87;;;2.57;;
56770;SDS011;42641;59.794;17.616;2022-12-08T17:07:27;3.50;;;2.30;;
56770;SDS011;42641;59.794;17.616;2022-12-08T17:09:54;5.63;;;2.77;;